Time;durP1;ratioP1;P1;durP2;ratioP2;P2;SDS_P1;SDS_P2;PMS_P1;PMS_P2;Temp;Humidity;BMP_temperature;BMP_pressure;BME280_temperature;BME280_humidity;BME280_pressure;Samples;Min_cycle;Max_cycle;Signal;HPM_P1;HPM_P2
2022/09/07 00:00:42;;;;;;;;;;;23.20;64.70;;;;;;5064227;28;19956;-66
2022/09/07 00:03:08;;;;;;;;;;;23.20;65.00;;;;;;5066095;28;19919;-66
2022/09/07 00:05:40;;;;;;;;;;;23.10;65.40;;;;;;5065634;28;19939;-66
2022/09/07 00:08:05;;;;;;;;;;;23.10;65.80;;;;;;5065625;28;19920;-66
2022/09/07 00:10:30;;;;;;;;;;;23.00;66.20;;;;;;5065635;28;19912;-66
2022/09/07 00:12:56;;;;;;;;;;;23.00;66.40;;;;;;5065761;28;19932;-67
2022/09/07 00:15:22;;;;;;;;;;;23.00;66.10;;;;;;5066427;28;19995;-66
2022/09/07 00:17:47;;;;;;;;;;;23.00;66.30;;;;;;5047956;28;20282;-66
2022/09/07 00:20:13;;;;;;;;;;;22.90;66.20;;;;;;5065699;28;19920;-66
2022/09/07 00:22:39;;;;;;;;;;;22.90;66.40;;;;;;5064379;28;19923;-66
2022/09/07 00:25:05;;;;;;;;;;;22.90;66.80;;;;;;5065825;28;19916;-66
2022/09/07 00:27:30;;;;;;;;;;;22.80;66.80;;;;;;5065415;28;19970;-66
2022/09/07 00:29:56;;;;;;;;;;;22.80;67.10;;;;;;5065814;28;19963;-66
2022/09/07 00:32:21;;;;;;;;;;;22.80;67.30;;;;;;5065652;28;19912;-66
2022/09/07 00:34:49;;;;;;;;;;;22.70;67.50;;;;;;5065465;28;19919;-66
2022/09/07 00:37:14;;;;;;;;;;;22.70;67.50;;;;;;5065255;28;20427;-66
2022/09/07 00:39:40;;;;;;;;;;;22.70;67.50;;;;;;5064669;28;19908;-66
2022/09/07 00:42:05;;;;;;;;;;;22.70;67.60;;;;;;5063088;28;19966;-66
2022/09/07 00:44:43;;;;;;;;;;;22.60;67.70;;;;;;5065632;28;19931;-66
2022/09/07 00:47:17;;;;;;;;;;;22.60;68.00;;;;;;5064069;28;19970;-66
2022/09/07 00:49:44;;;;;;;;;;;22.60;68.10;;;;;;5065149;28;19916;-66
2022/09/07 00:52:10;;;;;;;;;;;22.50;68.30;;;;;;5063106;28;20059;-66
2022/09/07 00:54:37;;;;;;;;;;;22.60;68.10;;;;;;5064309;28;20030;-66
2022/09/07 00:57:03;;;;;;;;;;;22.50;68.20;;;;;;5065200;28;19923;-66
2022/09/07 00:59:30;;;;;;;;;;;22.50;68.40;;;;;;5064669;28;19921;-66
2022/09/07 01:01:56;;;;;;;;;;;22.40;68.30;;;;;;5063339;28;19969;-66
2022/09/07 01:04:22;;;;;;;;;;;22.40;68.80;;;;;;5065465;28;20555;-66
2022/09/07 01:06:47;;;;;;;;;;;22.40;68.80;;;;;;5059639;28;19928;-67
2022/09/07 01:09:15;;;;;;;;;;;22.30;68.80;;;;;;5064874;28;20369;-67
2022/09/07 01:11:44;;;;;;;;;;;22.30;68.60;;;;;;5064421;28;19912;-67
2022/09/07 01:14:13;;;;;;;;;;;22.30;69.00;;;;;;5065273;28;19959;-67
2022/09/07 01:16:38;;;;;;;;;;;22.30;69.20;;;;;;5064946;28;19920;-67
2022/09/07 01:19:04;;;;;;;;;;;22.30;69.40;;;;;;5065224;28;19912;-67
2022/09/07 01:21:39;;;;;;;;;;;22.30;69.30;;;;;;5064916;28;20491;-67
2022/09/07 01:24:13;;;;;;;;;;;22.20;69.30;;;;;;5065036;28;19912;-67
2022/09/07 01:26:57;;;;;;;;;;;22.20;69.70;;;;;;5062919;28;19916;-67
2022/09/07 01:29:27;;;;;;;;;;;22.20;69.70;;;;;;5063970;28;20003;-67
2022/09/07 01:32:04;;;;;;;;;;;22.20;69.90;;;;;;5065883;28;19913;-67
2022/09/07 01:34:30;;;;;;;;;;;22.20;70.30;;;;;;5065202;28;19912;-67
2022/09/07 01:37:04;;;;;;;;;;;22.10;70.40;;;;;;5068396;28;19920;-67
2022/09/07 01:39:48;;;;;;;;;;;22.10;70.30;;;;;;5068735;28;19917;-66
2022/09/07 01:42:17;;;;;;;;;;;22.10;70.50;;;;;;5068169;28;19966;-67
2022/09/07 01:44:48;;;;;;;;;;;22.10;70.60;;;;;;5068008;28;19920;-66
2022/09/07 01:47:17;;;;;;;;;;;22.00;70.90;;;;;;5050875;28;19919;-67
2022/09/07 01:49:54;;;;;;;;;;;22.00;71.00;;;;;;5068508;28;19909;-67
2022/09/07 01:52:28;;;;;;;;;;;22.00;71.20;;;;;;5067768;28;20503;-67
2022/09/07 01:54:57;;;;;;;;;;;22.00;71.30;;;;;;5068774;28;19912;-67
2022/09/07 01:57:30;;;;;;;;;;;22.00;71.50;;;;;;5067689;28;19927;-67
2022/09/07 01:59:56;;;;;;;;;;;22.00;71.60;;;;;;5065867;28;20431;-67
2022/09/07 02:02:28;;;;;;;;;;;22.00;71.70;;;;;;5065458;28;19913;-67
2022/09/07 02:05:04;;;;;;;;;;;21.90;71.70;;;;;;5065638;28;19919;-66
2022/09/07 02:07:53;;;;;;;;;;;21.90;72.00;;;;;;5067204;28;19912;-67
2022/09/07 02:10:39;;;;;;;;;;;21.90;72.00;;;;;;5039342;28;19928;-66
2022/09/07 02:13:30;;;;;;;;;;;21.90;72.30;;;;;;5064470;28;20377;-67
2022/09/07 02:15:58;;;;;;;;;;;21.90;72.30;;;;;;5062765;28;19924;-67
2022/09/07 02:18:26;;;;;;;;;;;21.90;72.40;;;;;;5067924;28;20407;-67
2022/09/07 02:20:55;;;;;;;;;;;21.80;72.50;;;;;;5065980;28;19921;-67
2022/09/07 02:23:21;;;;;;;;;;;21.80;72.90;;;;;;5067882;28;19912;-67
2022/09/07 02:25:52;;;;;;;;;;;21.80;72.70;;;;;;5067720;28;19913;-67
2022/09/07 02:28:38;;;;;;;;;;;21.80;73.10;;;;;;5067549;28;20001;-67
2022/09/07 02:31:03;;;;;;;;;;;21.80;73.30;;;;;;5066851;28;19969;-67
2022/09/07 02:33:29;;;;;;;;;;;21.80;73.40;;;;;;5066773;28;19920;-66
2022/09/07 02:35:55;;;;;;;;;;;21.70;73.50;;;;;;5067567;28;19908;-67
2022/09/07 02:38:21;;;;;;;;;;;21.70;73.60;;;;;;5067632;28;19912;-66
2022/09/07 02:40:53;;;;;;;;;;;21.70;73.90;;;;;;5066665;28;19936;-67
2022/09/07 02:43:20;;;;;;;;;;;21.70;73.70;;;;;;5067304;28;19917;-67
2022/09/07 02:46:04;;;;;;;;;;;21.60;73.70;;;;;;5067425;28;19947;-67
2022/09/07 02:48:30;;;;;;;;;;;21.60;73.60;;;;;;5067702;28;19955;-66
2022/09/07 02:51:02;;;;;;;;;;;21.60;73.70;;;;;;5049146;28;19940;-67
2022/09/07 02:53:37;;;;;;;;;;;21.60;74.10;;;;;;5062650;28;20388;-66
2022/09/07 02:56:11;;;;;;;;;;;21.60;74.30;;;;;;5067183;28;19913;-66
2022/09/07 02:58:37;;;;;;;;;;;21.50;74.50;;;;;;5066955;28;20456;-66
2022/09/07 03:01:17;;;;;;;;;;;21.50;74.60;;;;;;5066482;28;19990;-67
2022/09/07 03:03:43;;;;;;;;;;;21.50;74.80;;;;;;5066094;28;19913;-67
2022/09/07 03:06:12;;;;;;;;;;;21.50;75.00;;;;;;5066669;28;20460;-66
2022/09/07 03:08:42;;;;;;;;;;;21.40;74.80;;;;;;5067215;28;20376;-67
2022/09/07 03:11:08;;;;;;;;;;;21.40;74.90;;;;;;5067151;28;19913;-66
2022/09/07 03:13:34;;;;;;;;;;;21.40;75.20;;;;;;5067176;28;19919;-66
2022/09/07 03:16:00;;;;;;;;;;;21.40;75.40;;;;;;5067086;28;20403;-66
2022/09/07 03:18:26;;;;;;;;;;;21.40;75.30;;;;;;5066237;28;19913;-66
2022/09/07 03:20:52;;;;;;;;;;;21.30;75.40;;;;;;5066320;28;19966;-66
2022/09/07 03:23:17;;;;;;;;;;;21.30;75.50;;;;;;5065427;28;19916;-67
2022/09/07 03:25:43;;;;;;;;;;;21.30;75.70;;;;;;5066831;28;20463;-67
2022/09/07 03:28:08;;;;;;;;;;;21.30;75.60;;;;;;5066595;28;19920;-67
2022/09/07 03:30:34;;;;;;;;;;;21.30;75.70;;;;;;5066357;28;20406;-66
2022/09/07 03:33:00;;;;;;;;;;;21.20;75.70;;;;;;5048168;28;19912;-66
2022/09/07 03:35:25;;;;;;;;;;;21.20;75.80;;;;;;5048641;28;19935;-67
2022/09/07 03:37:51;;;;;;;;;;;21.20;75.70;;;;;;5066320;28;19913;-67
2022/09/07 03:40:16;;;;;;;;;;;21.20;75.90;;;;;;5066390;28;19966;-66
2022/09/07 03:42:42;;;;;;;;;;;21.20;75.90;;;;;;5066142;28;20360;-66
2022/09/07 03:45:08;;;;;;;;;;;21.10;75.90;;;;;;5066350;28;19912;-67
2022/09/07 03:47:34;;;;;;;;;;;21.10;76.00;;;;;;5066477;28;19913;-66
2022/09/07 03:50:00;;;;;;;;;;;21.10;76.20;;;;;;5066199;28;19919;-67
2022/09/07 03:52:25;;;;;;;;;;;21.10;76.30;;;;;;5047683;28;19963;-67
2022/09/07 03:54:51;;;;;;;;;;;21.10;77.10;;;;;;5066147;28;19995;-67
2022/09/07 03:57:19;;;;;;;;;;;21.00;76.50;;;;;;5065863;28;19912;-67
2022/09/07 03:59:45;;;;;;;;;;;21.00;76.60;;;;;;5065880;28;20424;-66
2022/09/07 04:02:11;;;;;;;;;;;21.00;76.50;;;;;;5065393;28;19916;-67
2022/09/07 04:04:37;;;;;;;;;;;21.00;76.70;;;;;;5066060;28;19913;-66
2022/09/07 04:07:02;;;;;;;;;;;20.90;76.70;;;;;;5065897;28;19993;-67
2022/09/07 04:09:28;;;;;;;;;;;20.90;76.80;;;;;;5066060;28;19916;-67
2022/09/07 04:11:53;;;;;;;;;;;20.90;76.80;;;;;;5065497;28;19962;-67
2022/09/07 04:14:19;;;;;;;;;;;20.90;76.90;;;;;;5066116;28;19912;-67
2022/09/07 04:16:44;;;;;;;;;;;20.90;76.90;;;;;;5065901;28;19916;-67
2022/09/07 04:19:10;;;;;;;;;;;20.80;76.90;;;;;;5065848;28;19967;-67
2022/09/07 04:21:36;;;;;;;;;;;20.80;76.90;;;;;;5047362;28;19948;-67
2022/09/07 04:24:01;;;;;;;;;;;20.80;77.00;;;;;;5047776;28;19919;-67
2022/09/07 04:26:29;;;;;;;;;;;20.80;77.00;;;;;;5065683;28;19956;-66
2022/09/07 04:28:54;;;;;;;;;;;20.80;77.00;;;;;;5065632;28;19916;-67
2022/09/07 04:31:21;;;;;;;;;;;20.80;77.20;;;;;;5047598;28;19943;-66
2022/09/07 04:33:47;;;;;;;;;;;20.70;77.30;;;;;;5065824;28;19913;-67
2022/09/07 04:36:13;;;;;;;;;;;20.70;77.30;;;;;;5065961;28;20486;-67
2022/09/07 04:38:39;;;;;;;;;;;20.70;77.30;;;;;;5065033;28;19970;-67
2022/09/07 04:41:07;;;;;;;;;;;20.70;77.40;;;;;;5065028;28;19920;-67
2022/09/07 04:43:32;;;;;;;;;;;20.60;77.30;;;;;;5065770;28;19920;-66
2022/09/07 04:46:02;;;;;;;;;;;20.70;77.50;;;;;;5065656;28;20423;-67
2022/09/07 04:48:27;;;;;;;;;;;20.60;77.60;;;;;;5065179;28;19977;-67
2022/09/07 04:50:53;;;;;;;;;;;20.60;77.60;;;;;;5064646;28;20380;-67
2022/09/07 04:53:18;;;;;;;;;;;20.60;77.70;;;;;;5065155;28;19930;-67
2022/09/07 04:55:44;;;;;;;;;;;20.50;77.60;;;;;;5065091;28;19954;-67
2022/09/07 04:58:09;;;;;;;;;;;20.60;77.80;;;;;;5065573;28;19917;-67
2022/09/07 05:00:37;;;;;;;;;;;20.50;77.70;;;;;;5046835;28;19959;-67
2022/09/07 05:03:04;;;;;;;;;;;20.50;77.60;;;;;;5063913;28;19951;-67
2022/09/07 05:05:29;;;;;;;;;;;20.50;77.70;;;;;;5065265;28;19916;-67
2022/09/07 05:07:55;;;;;;;;;;;20.50;77.90;;;;;;5065111;28;20420;-67
2022/09/07 05:10:20;;;;;;;;;;;20.40;78.00;;;;;;5067353;28;19990;-67
2022/09/07 05:12:46;;;;;;;;;;;20.40;77.80;;;;;;5068862;28;19916;-67
2022/09/07 05:15:11;;;;;;;;;;;20.50;78.00;;;;;;5069258;28;20058;-67
2022/09/07 05:17:37;;;;;;;;;;;20.40;77.90;;;;;;5069054;28;19959;-67
2022/09/07 05:20:03;;;;;;;;;;;20.40;78.00;;;;;;5069567;28;20023;-66
2022/09/07 05:22:28;;;;;;;;;;;20.40;78.00;;;;;;5068808;28;21461;-67
2022/09/07 05:24:54;;;;;;;;;;;20.40;78.10;;;;;;5068008;28;19923;-67
2022/09/07 05:27:20;;;;;;;;;;;20.40;78.20;;;;;;5068746;28;19916;-66
2022/09/07 05:29:45;;;;;;;;;;;20.30;78.30;;;;;;5068902;28;19939;-67
2022/09/07 05:32:12;;;;;;;;;;;20.30;78.00;;;;;;5068850;28;20007;-67
2022/09/07 05:34:37;;;;;;;;;;;20.30;78.10;;;;;;5068785;28;19916;-67
2022/09/07 05:37:03;;;;;;;;;;;20.30;78.20;;;;;;5068811;28;19984;-67
2022/09/07 05:39:28;;;;;;;;;;;20.30;78.10;;;;;;5068554;28;20013;-66
2022/09/07 05:41:54;;;;;;;;;;;20.40;78.30;;;;;;5068699;28;19927;-67
2022/09/07 05:44:19;;;;;;;;;;;20.30;78.20;;;;;;5068776;28;19942;-66
2022/09/07 05:46:45;;;;;;;;;;;20.30;78.20;;;;;;5050497;28;20009;-67
2022/09/07 05:49:11;;;;;;;;;;;20.30;78.40;;;;;;5068321;28;19917;-67
2022/09/07 05:51:36;;;;;;;;;;;20.30;78.40;;;;;;5068132;28;19917;-67
2022/09/07 05:54:02;;;;;;;;;;;20.30;78.40;;;;;;5068147;28;20003;-67
2022/09/07 05:56:28;;;;;;;;;;;20.30;78.50;;;;;;5068378;28;20689;-67
2022/09/07 05:58:53;;;;;;;;;;;20.30;78.40;;;;;;5068367;28;19916;-67
2022/09/07 06:01:19;;;;;;;;;;;20.30;78.60;;;;;;5067893;28;19928;-66
2022/09/07 06:03:45;;;;;;;;;;;20.30;78.60;;;;;;5068247;28;20402;-66
2022/09/07 06:06:11;;;;;;;;;;;20.30;79.20;;;;;;5068462;28;20428;-67
2022/09/07 06:08:38;;;;;;;;;;;20.30;78.70;;;;;;5049572;28;19916;-67
2022/09/07 06:11:07;;;;;;;;;;;20.30;78.70;;;;;;5067756;28;20331;-67
2022/09/07 06:13:33;;;;;;;;;;;20.30;78.60;;;;;;5068354;28;20046;-67
2022/09/07 06:16:00;;;;;;;;;;;20.30;78.70;;;;;;5068442;28;20003;-67
2022/09/07 06:18:30;;;;;;;;;;;20.30;78.60;;;;;;5068267;28;20427;-66
2022/09/07 06:21:00;;;;;;;;;;;20.30;78.80;;;;;;5067417;28;20003;-67
2022/09/07 06:23:25;;;;;;;;;;;20.30;78.90;;;;;;5068046;28;19920;-67
2022/09/07 06:25:51;;;;;;;;;;;20.30;79.00;;;;;;5068114;28;19912;-66
2022/09/07 06:28:16;;;;;;;;;;;20.30;79.00;;;;;;5049792;28;19919;-66
2022/09/07 06:30:42;;;;;;;;;;;20.30;79.00;;;;;;5068196;28;19912;-67
2022/09/07 06:33:07;;;;;;;;;;;20.30;79.10;;;;;;5068206;28;19985;-67
2022/09/07 06:35:33;;;;;;;;;;;20.30;79.30;;;;;;5067834;28;20389;-66
2022/09/07 06:37:58;;;;;;;;;;;20.30;79.30;;;;;;5067430;28;19923;-66
2022/09/07 06:40:24;;;;;;;;;;;20.30;79.50;;;;;;5049493;28;19923;-67
2022/09/07 06:42:49;;;;;;;;;;;20.30;79.40;;;;;;5067638;28;19920;-66
2022/09/07 06:45:15;;;;;;;;;;;20.30;79.60;;;;;;5067656;28;19909;-67
2022/09/07 06:47:41;;;;;;;;;;;20.30;79.40;;;;;;5067617;28;20011;-67
2022/09/07 06:50:06;;;;;;;;;;;20.30;79.50;;;;;;5067465;28;19912;-67
2022/09/07 06:52:34;;;;;;;;;;;20.30;79.30;;;;;;5067192;28;19948;-67
2022/09/07 06:54:59;;;;;;;;;;;20.30;79.30;;;;;;5067777;28;19916;-67
2022/09/07 06:57:25;;;;;;;;;;;20.30;79.10;;;;;;5067462;28;19995;-67
2022/09/07 06:59:51;;;;;;;;;;;20.30;79.50;;;;;;5067173;28;19912;-67
2022/09/07 07:02:17;;;;;;;;;;;20.30;79.40;;;;;;5066444;28;19920;-66
2022/09/07 07:04:42;;;;;;;;;;;20.30;79.50;;;;;;5067291;28;20003;-67
2022/09/07 07:07:12;;;;;;;;;;;20.30;78.90;;;;;;5067100;28;20596;-67
2022/09/07 07:09:38;;;;;;;;;;;20.30;79.10;;;;;;5067140;28;19970;-66
2022/09/07 07:12:04;;;;;;;;;;;20.30;79.30;;;;;;5066884;28;20397;-67
2022/09/07 07:14:29;;;;;;;;;;;20.40;78.50;;;;;;5048593;28;19969;-66
2022/09/07 07:16:54;;;;;;;;;;;20.30;78.50;;;;;;5066682;28;19923;-66
2022/09/07 07:19:20;;;;;;;;;;;20.40;78.70;;;;;;5066672;28;20094;-66
2022/09/07 07:21:45;;;;;;;;;;;20.40;78.20;;;;;;5066564;28;20009;-66
2022/09/07 07:24:11;;;;;;;;;;;20.40;78.10;;;;;;5066278;28;19920;-66
2022/09/07 07:26:39;;;;;;;;;;;20.40;78.10;;;;;;5067001;28;19908;-66
2022/09/07 07:29:04;;;;;;;;;;;20.50;78.10;;;;;;5066766;28;19913;-66
2022/09/07 07:31:32;;;;;;;;;;;20.40;78.10;;;;;;5062262;28;19923;-66
2022/09/07 07:33:57;;;;;;;;;;;20.50;78.00;;;;;;5064818;28;20550;-66
2022/09/07 07:36:24;;;;;;;;;;;20.50;78.00;;;;;;5066622;28;19916;-66
2022/09/07 07:38:51;;;;;;;;;;;20.60;77.80;;;;;;5066157;28;20606;-66
2022/09/07 07:41:18;;;;;;;;;;;20.60;77.60;;;;;;5066281;28;19966;-66
2022/09/07 07:43:44;;;;;;;;;;;20.60;77.60;;;;;;5066420;28;20300;-66
2022/09/07 07:46:13;;;;;;;;;;;20.70;77.40;;;;;;5066072;28;19970;-66
2022/09/07 07:48:39;;;;;;;;;;;20.70;77.40;;;;;;5066329;28;19916;-66
2022/09/07 07:51:05;;;;;;;;;;;20.70;77.40;;;;;;5066041;28;20443;-66
2022/09/07 07:53:31;;;;;;;;;;;20.80;77.60;;;;;;5066548;28;19908;-66
2022/09/07 07:56:00;;;;;;;;;;;20.80;77.40;;;;;;5066047;28;19999;-66
2022/09/07 07:58:26;;;;;;;;;;;20.80;77.60;;;;;;5066209;28;19908;-66
2022/09/07 08:00:53;;;;;;;;;;;20.80;77.40;;;;;;5065989;28;19951;-66
2022/09/07 08:03:19;;;;;;;;;;;20.80;77.00;;;;;;5061364;28;19917;-66
2022/09/07 08:05:45;;;;;;;;;;;20.90;77.50;;;;;;5066284;28;20317;-66
2022/09/07 08:08:10;;;;;;;;;;;20.90;77.00;;;;;;5066178;28;19962;-66
2022/09/07 08:10:36;;;;;;;;;;;20.90;77.20;;;;;;5065944;28;19909;-66
2022/09/07 08:13:02;;;;;;;;;;;21.00;77.20;;;;;;5066277;28;19912;-66
2022/09/07 08:15:28;;;;;;;;;;;21.00;77.00;;;;;;5066099;28;19962;-66
2022/09/07 08:17:54;;;;;;;;;;;21.10;77.00;;;;;;5065958;28;19912;-66
2022/09/07 08:20:19;;;;;;;;;;;21.10;77.00;;;;;;5066195;28;19919;-66
2022/09/07 08:22:48;;;;;;;;;;;21.10;77.00;;;;;;5066181;28;20003;-67
2022/09/07 08:25:13;;;;;;;;;;;21.10;76.90;;;;;;5066467;28;20449;-67
2022/09/07 08:27:39;;;;;;;;;;;21.10;77.00;;;;;;5066465;28;19999;-67
2022/09/07 08:30:04;;;;;;;;;;;21.20;77.20;;;;;;5066019;28;20328;-66
2022/09/07 08:32:30;;;;;;;;;;;21.20;76.80;;;;;;5065529;28;19913;-67
2022/09/07 08:34:57;;;;;;;;;;;21.20;76.80;;;;;;5065843;28;20246;-66
2022/09/07 08:37:23;;;;;;;;;;;21.30;76.80;;;;;;5061484;28;19927;-66
2022/09/07 08:39:48;;;;;;;;;;;21.40;76.60;;;;;;5064215;28;19929;-66
2022/09/07 08:42:14;;;;;;;;;;;21.30;76.30;;;;;;5064986;28;20026;-66
2022/09/07 08:44:52;;;;;;;;;;;21.40;76.20;;;;;;5064926;28;19920;-66
2022/09/07 08:47:31;;;;;;;;;;;21.50;76.60;;;;;;5061971;28;19923;-66
2022/09/07 08:50:17;;;;;;;;;;;21.50;76.50;;;;;;5065340;28;20014;-67
2022/09/07 08:52:51;;;;;;;;;;;21.60;76.10;;;;;;5064112;28;19991;-67
2022/09/07 08:55:30;;;;;;;;;;;21.60;76.70;;;;;;5065442;28;19916;-66
2022/09/07 08:58:00;;;;;;;;;;;21.70;76.40;;;;;;5065522;28;19940;-66
2022/09/07 09:00:26;;;;;;;;;;;21.70;75.80;;;;;;5062408;28;19917;-66
2022/09/07 09:02:51;;;;;;;;;;;21.70;76.50;;;;;;5065100;28;19939;-66
2022/09/07 09:05:26;;;;;;;;;;;21.70;76.00;;;;;;5065622;28;19955;-66
2022/09/07 09:08:02;;;;;;;;;;;21.80;75.50;;;;;;5065034;28;19996;-66
2022/09/07 09:10:35;;;;;;;;;;;21.90;75.90;;;;;;5065203;28;20404;-66
2022/09/07 09:13:01;;;;;;;;;;;21.90;76.00;;;;;;5065154;28;19938;-66
2022/09/07 09:15:45;;;;;;;;;;;22.00;75.70;;;;;;5065142;28;19917;-66
2022/09/07 09:18:12;;;;;;;;;;;22.10;74.90;;;;;;5065361;28;19919;-66
2022/09/07 09:20:44;;;;;;;;;;;22.10;75.00;;;;;;5065216;28;19927;-66
2022/09/07 09:23:11;;;;;;;;;;;22.10;74.80;;;;;;5065303;28;19912;-66
2022/09/07 09:25:38;;;;;;;;;;;22.20;74.70;;;;;;5065388;28;19917;-66
2022/09/07 09:28:04;;;;;;;;;;;22.20;75.00;;;;;;5065032;28;19913;-66
2022/09/07 09:30:30;;;;;;;;;;;22.20;74.80;;;;;;5063875;28;20300;-66
2022/09/07 09:33:14;;;;;;;;;;;22.30;74.70;;;;;;5065299;28;19912;-66
2022/09/07 09:35:40;;;;;;;;;;;22.30;74.50;;;;;;5064829;28;20419;-67
2022/09/07 09:38:28;;;;;;;;;;;22.40;74.30;;;;;;5064887;28;19912;-66
2022/09/07 09:40:55;;;;;;;;;;;22.40;74.70;;;;;;5060906;28;20624;-66
2022/09/07 09:43:22;;;;;;;;;;;22.40;74.70;;;;;;5060543;28;20522;-66
2022/09/07 09:45:49;;;;;;;;;;;22.40;74.60;;;;;;5065263;28;19921;-66
2022/09/07 09:48:20;;;;;;;;;;;22.50;74.30;;;;;;5065270;28;20388;-66
2022/09/07 09:50:47;;;;;;;;;;;22.50;74.30;;;;;;5065320;28;19939;-66
2022/09/07 09:53:39;;;;;;;;;;;22.50;74.00;;;;;;5064717;28;20319;-66
2022/09/07 09:56:05;;;;;;;;;;;22.50;74.00;;;;;;5062735;28;19969;-67
2022/09/07 09:58:44;;;;;;;;;;;22.50;73.90;;;;;;5068663;28;19913;-66
2022/09/07 10:01:22;;;;;;;;;;;22.60;73.90;;;;;;5067783;28;19970;-67
2022/09/07 10:03:47;;;;;;;;;;;22.60;74.00;;;;;;5068215;28;20360;-67
2022/09/07 10:06:15;;;;;;;;;;;22.60;74.00;;;;;;5068345;28;19944;-67
2022/09/07 10:08:50;;;;;;;;;;;22.50;73.70;;;;;;5068183;28;19917;-67
2022/09/07 10:11:16;;;;;;;;;;;22.60;73.80;;;;;;5068042;28;20281;-67
2022/09/07 10:13:43;;;;;;;;;;;22.60;73.70;;;;;;5068244;28;19912;-67
2022/09/07 10:16:09;;;;;;;;;;;22.70;73.70;;;;;;5068308;28;20393;-67
2022/09/07 10:18:37;;;;;;;;;;;22.70;73.50;;;;;;5050045;28;19925;-66
2022/09/07 10:21:13;;;;;;;;;;;22.80;73.70;;;;;;5067794;28;20007;-66
2022/09/07 10:23:38;;;;;;;;;;;22.80;73.20;;;;;;5068145;28;20277;-67
2022/09/07 10:26:21;;;;;;;;;;;23.00;73.30;;;;;;5068426;28;19908;-67
2022/09/07 10:28:46;;;;;;;;;;;23.00;72.60;;;;;;5067666;28;20297;-67
2022/09/07 10:31:29;;;;;;;;;;;23.00;73.00;;;;;;5067869;28;19916;-67
2022/09/07 10:33:54;;;;;;;;;;;23.00;73.00;;;;;;5067975;28;19916;-66
2022/09/07 10:36:35;;;;;;;;;;;23.10;72.90;;;;;;5067800;28;20622;-67
2022/09/07 10:39:03;;;;;;;;;;;23.10;72.90;;;;;;5062086;28;19917;-67
2022/09/07 10:41:34;;;;;;;;;;;23.30;72.60;;;;;;5061913;28;19924;-66
2022/09/07 10:44:01;;;;;;;;;;;23.30;72.20;;;;;;5067566;28;20388;-66
2022/09/07 10:46:26;;;;;;;;;;;23.30;72.50;;;;;;5067999;28;20528;-67
2022/09/07 10:48:55;;;;;;;;;;;23.40;72.30;;;;;;5065035;28;19920;-67
2022/09/07 10:51:20;;;;;;;;;;;23.50;72.30;;;;;;5067302;28;19908;-67
2022/09/07 10:53:56;;;;;;;;;;;23.50;71.70;;;;;;5067188;28;20423;-67
2022/09/07 10:56:24;;;;;;;;;;;23.60;71.80;;;;;;5067880;28;20430;-67
2022/09/07 10:59:02;;;;;;;;;;;23.60;72.20;;;;;;5067276;28;19927;-66
2022/09/07 11:01:30;;;;;;;;;;;23.60;71.90;;;;;;5067101;28;20405;-67
2022/09/07 11:04:16;;;;;;;;;;;23.60;71.80;;;;;;5067242;28;20365;-67
2022/09/07 11:06:46;;;;;;;;;;;23.70;71.70;;;;;;5065971;28;20317;-66
2022/09/07 11:09:35;;;;;;;;;;;23.70;71.70;;;;;;5067016;28;19930;-66
2022/09/07 11:12:01;;;;;;;;;;;23.70;71.60;;;;;;5067015;28;20024;-67
2022/09/07 11:14:27;;;;;;;;;;;23.90;71.80;;;;;;5066533;28;19975;-67
2022/09/07 11:16:57;;;;;;;;;;;23.90;71.50;;;;;;5066878;28;19919;-67
2022/09/07 11:19:23;;;;;;;;;;;24.10;71.60;;;;;;5067183;28;19920;-66
2022/09/07 11:22:07;;;;;;;;;;;24.10;71.30;;;;;;5066639;28;20436;-66
2022/09/07 11:24:36;;;;;;;;;;;24.20;70.90;;;;;;5067196;28;19916;-66
2022/09/07 11:27:07;;;;;;;;;;;24.30;70.60;;;;;;5067312;28;20306;-66
2022/09/07 11:29:45;;;;;;;;;;;24.30;70.90;;;;;;5064317;28;19916;-67
2022/09/07 11:32:16;;;;;;;;;;;24.50;70.90;;;;;;5063084;28;19912;-67
2022/09/07 11:34:44;;;;;;;;;;;24.50;70.70;;;;;;5063907;28;19912;-66
2022/09/07 11:37:17;;;;;;;;;;;24.50;70.80;;;;;;5064865;28;20027;-66
2022/09/07 11:39:46;;;;;;;;;;;24.70;70.20;;;;;;5065879;28;20000;-66
2022/09/07 11:42:31;;;;;;;;;;;24.70;70.20;;;;;;5065438;28;19917;-67
2022/09/07 11:45:05;;;;;;;;;;;24.80;70.50;;;;;;5064976;28;19920;-67
2022/09/07 11:47:40;;;;;;;;;;;24.80;70.50;;;;;;5065683;28;19912;-67
2022/09/07 11:50:16;;;;;;;;;;;24.90;70.20;;;;;;5047623;28;19913;-66
2022/09/07 11:52:44;;;;;;;;;;;25.00;70.20;;;;;;5064927;28;20397;-67
2022/09/07 11:55:11;;;;;;;;;;;25.00;70.30;;;;;;5065749;28;19916;-66
2022/09/07 11:58:03;;;;;;;;;;;25.10;70.10;;;;;;5065436;28;19933;-67
2022/09/07 12:00:31;;;;;;;;;;;25.20;70.20;;;;;;5045459;28;20000;-66
2022/09/07 12:02:57;;;;;;;;;;;25.30;70.10;;;;;;5064663;28;19916;-67
2022/09/07 12:05:28;;;;;;;;;;;25.30;70.20;;;;;;5065180;28;20301;-67
2022/09/07 12:08:02;;;;;;;;;;;25.30;69.80;;;;;;5065145;28;19961;-67
2022/09/07 12:10:39;;;;;;;;;;;25.30;69.90;;;;;;5064648;28;19941;-67
2022/09/07 12:13:14;;;;;;;;;;;25.30;69.90;;;;;;5065112;28;19912;-67
2022/09/07 12:16:00;;;;;;;;;;;25.40;69.90;;;;;;5063679;28;19917;-67
2022/09/07 12:18:31;;;;;;;;;;;25.40;69.70;;;;;;5064433;28;19916;-67
2022/09/07 12:20:57;;;;;;;;;;;25.40;69.90;;;;;;5064709;28;19916;-67
2022/09/07 12:23:27;;;;;;;;;;;25.50;69.90;;;;;;5064697;28;19927;-67
2022/09/07 12:26:12;;;;;;;;;;;25.50;69.60;;;;;;5064528;28;20003;-67
2022/09/07 12:28:38;;;;;;;;;;;25.50;69.90;;;;;;5064280;28;20046;-66
2022/09/07 12:31:05;;;;;;;;;;;25.50;69.70;;;;;;5064578;28;20019;-66
2022/09/07 12:33:35;;;;;;;;;;;25.60;69.80;;;;;;5064475;28;19912;-67
2022/09/07 12:36:01;;;;;;;;;;;25.60;69.90;;;;;;5065012;28;19931;-66
2022/09/07 12:38:30;;;;;;;;;;;25.60;69.70;;;;;;5064142;28;19916;-67
2022/09/07 12:41:01;;;;;;;;;;;25.60;69.50;;;;;;5064664;28;19974;-67
2022/09/07 12:43:47;;;;;;;;;;;25.70;69.30;;;;;;5064552;28;19920;-66
2022/09/07 12:46:30;;;;;;;;;;;25.70;69.10;;;;;;5022925;28;19931;-66
2022/09/07 12:49:03;;;;;;;;;;;25.70;68.80;;;;;;5063908;28;19935;-66
2022/09/07 12:51:28;;;;;;;;;;;25.80;68.90;;;;;;5064413;28;19923;-67
2022/09/07 12:54:02;;;;;;;;;;;25.80;69.00;;;;;;5064878;28;20399;-67
2022/09/07 12:56:30;;;;;;;;;;;25.80;68.90;;;;;;5064639;28;19916;-67
2022/09/07 12:59:11;;;;;;;;;;;25.80;68.90;;;;;;5064524;28;19926;-67
2022/09/07 13:01:47;;;;;;;;;;;25.80;69.00;;;;;;5044113;28;20368;-67
2022/09/07 13:04:21;;;;;;;;;;;25.70;69.10;;;;;;5062436;28;19923;-67
2022/09/07 13:06:52;;;;;;;;;;;25.70;69.10;;;;;;5064544;28;19923;-67
2022/09/07 13:09:34;;;;;;;;;;;25.70;69.80;;;;;;5046122;28;19923;-67
2022/09/07 13:12:03;;;;;;;;;;;25.60;69.50;;;;;;5063883;28;19920;-67
2022/09/07 13:14:31;;;;;;;;;;;25.70;69.40;;;;;;5060354;28;20756;-67
2022/09/07 13:17:37;;;;;;;;;;;25.70;69.30;;;;;;5063216;28;20328;-67
2022/09/07 13:20:05;;;;;;;;;;;25.80;69.10;;;;;;5002458;28;19944;-67
2022/09/07 13:22:31;;;;;;;;;;;25.70;69.30;;;;;;5001891;28;19954;-67
2022/09/07 13:24:58;;;;;;;;;;;25.70;69.50;;;;;;5032467;28;19927;-67
2022/09/07 13:27:48;;;;;;;;;;;25.70;69.60;;;;;;5065437;28;20563;-67
2022/09/07 13:30:14;;;;;;;;;;;25.60;69.70;;;;;;5061570;28;19924;-67
2022/09/07 13:32:40;;;;;;;;;;;25.60;69.80;;;;;;5067582;28;20352;-67
2022/09/07 13:35:17;;;;;;;;;;;25.60;69.80;;;;;;5066691;28;20263;-67
2022/09/07 13:37:50;;;;;;;;;;;25.60;69.60;;;;;;5067218;28;19926;-67
2022/09/07 13:40:22;;;;;;;;;;;25.60;69.70;;;;;;5067600;28;19912;-67
2022/09/07 13:42:49;;;;;;;;;;;25.70;69.60;;;;;;5067312;28;19926;-67
2022/09/07 13:45:49;;;;;;;;;;;25.70;69.50;;;;;;5067853;28;19920;-67
2022/09/07 13:48:23;;;;;;;;;;;25.70;69.50;;;;;;4986395;28;20307;-66
2022/09/07 13:50:55;;;;;;;;;;;25.70;69.70;;;;;;5055250;28;19916;-66
2022/09/07 13:53:27;;;;;;;;;;;25.70;69.70;;;;;;5067566;28;20266;-67
2022/09/07 13:56:19;;;;;;;;;;;25.70;69.60;;;;;;5049895;28;19995;-66
2022/09/07 13:58:50;;;;;;;;;;;25.80;69.40;;;;;;5059461;28;19919;-67
2022/09/07 14:01:19;;;;;;;;;;;25.80;70.20;;;;;;5066791;28;20015;-66
2022/09/07 14:03:46;;;;;;;;;;;25.80;69.70;;;;;;5068206;28;19912;-66
2022/09/07 14:06:25;;;;;;;;;;;25.70;69.70;;;;;;5068635;28;19913;-66
2022/09/07 14:08:52;;;;;;;;;;;25.80;69.90;;;;;;5063398;28;19916;-66
2022/09/07 14:11:18;;;;;;;;;;;25.80;69.80;;;;;;5064358;28;19920;-67
2022/09/07 14:13:44;;;;;;;;;;;25.80;69.40;;;;;;5068006;28;19912;-67
2022/09/07 14:16:09;;;;;;;;;;;25.80;69.20;;;;;;5067525;28;19966;-67
2022/09/07 14:18:35;;;;;;;;;;;25.90;69.20;;;;;;5067607;28;19920;-67
2022/09/07 14:21:01;;;;;;;;;;;26.00;69.10;;;;;;5067984;28;19916;-67
2022/09/07 14:23:28;;;;;;;;;;;26.00;69.00;;;;;;5067718;28;20435;-67
2022/09/07 14:26:06;;;;;;;;;;;26.10;69.00;;;;;;5067964;28;20292;-67
2022/09/07 14:28:35;;;;;;;;;;;26.10;68.60;;;;;;5067505;28;19910;-66